Time;durP1;ratioP1;P1;durP2;ratioP2;P2;SDS_P1;SDS_P2;PMS_P1;PMS_P2;Temp;Humidity;BMP_temperature;BMP_pressure;BME280_temperature;BME280_humidity;BME280_pressure;Samples;Min_cycle;Max_cycle;Signal;HPM_P1;HPM_P2
2022/03/03 00:00:48;;;;;;;23.00;10.48;;;;;;;5.80;34.74;98812.00;4497155;31;20368;-83
2022/03/03 00:03:13;;;;;;;25.62;9.80;;;;;;;5.83;34.80;98819.75;4476743;32;20115;-82
2022/03/03 00:05:39;;;;;;;22.10;8.88;;;;;;;5.76;34.96;98818.25;4498291;31;20131;-82
2022/03/03 00:08:04;;;;;;;24.65;10.32;;;;;;;5.62;35.64;98815.22;4499514;31;20490;-82
2022/03/03 00:10:30;;;;;;;23.15;9.70;;;;;;;5.67;35.63;98815.94;4501440;31;20483;-82
2022/03/03 00:12:55;;;;;;;22.25;9.85;;;;;;;5.79;35.48;98819.87;4494377;31;20111;-82
2022/03/03 00:15:21;;;;;;;21.77;9.82;;;;;;;5.80;35.59;98813.75;4486174;32;20152;-83
2022/03/03 00:17:46;;;;;;;21.20;8.88;;;;;;;5.78;36.21;98812.97;4486102;32;20111;-82
2022/03/03 00:20:11;;;;;;;21.50;9.45;;;;;;;5.71;36.51;98815.75;4485796;32;20148;-83
2022/03/03 00:22:37;;;;;;;19.08;8.57;;;;;;;5.67;36.85;98821.16;4489896;31;20147;-86
2022/03/03 00:25:03;;;;;;;22.55;9.10;;;;;;;5.77;36.69;98819.09;4486301;32;20106;-86
2022/03/03 00:27:29;;;;;;;20.75;9.25;;;;;;;5.72;37.02;98817.50;4488972;31;20088;-86
2022/03/03 00:29:54;;;;;;;22.05;9.50;;;;;;;5.69;37.14;98812.34;4487454;31;20096;-85
2022/03/03 00:32:19;;;;;;;22.85;9.18;;;;;;;5.72;37.20;98825.31;4498387;31;20103;-85
2022/03/03 00:34:45;;;;;;;20.35;8.68;;;;;;;5.74;37.22;98817.44;4459140;32;20111;-86
2022/03/03 00:37:10;;;;;;;21.20;9.55;;;;;;;5.74;37.33;98827.03;4486321;32;20445;-84
2022/03/03 00:39:36;;;;;;;19.90;8.30;;;;;;;5.71;37.58;98815.75;4470026;32;20119;-82
2022/03/03 00:42:01;;;;;;;22.00;9.25;;;;;;;5.71;37.72;98826.22;4486686;31;20110;-82
2022/03/03 00:44:27;;;;;;;20.55;8.77;;;;;;;5.67;37.95;98816.78;4501954;31;20452;-83
2022/03/03 00:46:52;;;;;;;24.60;9.57;;;;;;;5.72;38.01;98814.88;4487128;31;20152;-84
2022/03/03 00:49:18;;;;;;;23.98;9.75;;;;;;;5.66;38.10;98811.59;4490259;31;20154;-82
2022/03/03 00:51:43;;;;;;;19.05;8.90;;;;;;;5.69;38.22;98814.13;4485515;32;20104;-83
2022/03/03 00:54:08;;;;;;;23.00;9.63;;;;;;;5.67;38.46;98808.09;4500202;31;20143;-82
2022/03/03 00:56:34;;;;;;;20.65;9.18;;;;;;;5.66;38.64;98809.88;4487232;31;20088;-83
2022/03/03 00:58:59;;;;;;;22.13;9.32;;;;;;;5.66;38.89;98802.03;4501393;31;20108;-83
2022/03/03 01:01:25;;;;;;;20.40;8.40;;;;;;;5.64;39.02;98800.34;4487177;31;20125;-82
2022/03/03 01:03:50;;;;;;;23.92;9.30;;;;;;;5.63;39.19;98798.66;4500056;31;20164;-82
2022/03/03 01:06:16;;;;;;;20.75;8.80;;;;;;;5.62;39.22;98791.69;4487813;31;20106;-83
2022/03/03 01:08:41;;;;;;;21.75;9.10;;;;;;;5.57;39.44;98785.81;4502451;31;20412;-83
2022/03/03 01:11:07;;;;;;;22.40;9.60;;;;;;;5.58;39.60;98795.34;4502255;31;20096;-83
2022/03/03 01:13:33;;;;;;;20.00;8.60;;;;;;;5.56;39.74;98784.94;4492022;31;20380;-82
2022/03/03 01:15:58;;;;;;;20.17;8.45;;;;;;;5.57;39.82;98784.03;4486467;32;20110;-82
2022/03/03 01:18:24;;;;;;;19.75;8.95;;;;;;;5.58;40.04;98784.88;4485695;32;20131;-83
2022/03/03 01:20:49;;;;;;;19.70;8.57;;;;;;;5.57;40.30;98773.59;4486273;32;20092;-82
2022/03/03 01:23:16;;;;;;;22.00;9.40;;;;;;;5.58;40.24;98780.53;4479981;31;20084;-83
2022/03/03 01:25:41;;;;;;;23.00;9.38;;;;;;;5.54;40.53;98778.91;4487687;31;20076;-84
2022/03/03 01:28:07;;;;;;;27.15;9.80;;;;;;;5.51;40.68;98773.81;4487611;31;20149;-83
2022/03/03 01:30:32;;;;;;;22.60;9.20;;;;;;;5.56;40.70;98776.25;4502040;31;20088;-83
2022/03/03 01:32:58;;;;;;;22.33;9.23;;;;;;;5.51;40.61;98774.66;4495663;31;20089;-82
2022/03/03 01:35:23;;;;;;;22.75;9.30;;;;;;;5.44;40.70;98770.53;4494645;31;20080;-82
2022/03/03 01:37:49;;;;;;;21.20;8.57;;;;;;;5.47;40.66;98766.97;4502209;31;20124;-83
2022/03/03 01:40:14;;;;;;;23.27;9.35;;;;;;;5.43;40.71;98774.06;4502089;31;20110;-84
2022/03/03 01:42:40;;;;;;;21.23;9.48;;;;;;;5.42;40.76;98771.50;4497395;31;20089;-84
2022/03/03 01:45:07;;;;;;;21.58;9.63;;;;;;;5.41;40.90;98768.03;4486157;32;20077;-84
2022/03/03 01:47:32;;;;;;;19.02;8.95;;;;;;;5.42;41.18;98761.03;4486069;32;20118;-83
2022/03/03 01:49:58;;;;;;;22.27;9.05;;;;;;;5.41;41.34;98760.19;4458691;32;20364;-83
2022/03/03 01:52:23;;;;;;;22.75;8.90;;;;;;;5.37;41.47;98747.28;4487880;31;20138;-82
2022/03/03 01:54:49;;;;;;;20.55;8.57;;;;;;;5.33;41.60;98749.13;4472215;32;20458;-83
2022/03/03 01:57:19;;;;;;;18.92;8.65;;;;;;;5.34;41.68;98756.06;4486007;32;20088;-83
2022/03/03 01:59:44;;;;;;;21.83;10.00;;;;;;;5.36;41.62;98745.59;4471544;32;20100;-82
2022/03/03 02:02:10;;;;;;;22.77;9.27;;;;;;;5.34;41.64;98744.78;4471691;31;20104;-83
2022/03/03 02:04:40;;;;;;;21.15;9.13;;;;;;;5.28;41.81;98744.06;4486185;31;20520;-82
2022/03/03 02:07:09;;;;;;;24.77;9.68;;;;;;;5.25;41.80;98748.53;4471241;32;20190;-83
2022/03/03 02:09:34;;;;;;;23.50;10.13;;;;;;;5.19;41.87;98735.69;4485690;32;20091;-82
2022/03/03 02:12:00;;;;;;;23.95;9.68;;;;;;;5.23;41.91;98739.91;4471439;32;20454;-83
2022/03/03 02:14:26;;;;;;;25.67;9.73;;;;;;;5.22;41.86;98733.84;4483551;31;20348;-83
2022/03/03 02:16:51;;;;;;;23.85;10.55;;;;;;;5.22;41.84;98731.22;4485754;32;20096;-82
2022/03/03 02:19:18;;;;;;;23.02;10.18;;;;;;;5.18;41.88;98723.56;4485022;31;20081;-83
2022/03/03 02:21:51;;;;;;;23.30;10.43;;;;;;;5.13;41.78;98721.94;4484780;32;20164;-84
2022/03/03 02:24:17;;;;;;;23.65;10.57;;;;;;;5.14;41.67;98722.81;4486755;31;20488;-84
2022/03/03 02:26:43;;;;;;;20.80;9.52;;;;;;;5.11;41.60;98720.28;4487254;31;20104;-83
2022/03/03 02:29:09;;;;;;;22.52;10.15;;;;;;;5.12;41.57;98725.47;4487231;31;20152;-82
2022/03/03 02:31:34;;;;;;;25.30;10.85;;;;;;;5.12;41.39;98725.47;4503191;31;20128;-82
2022/03/03 02:34:00;;;;;;;24.42;10.95;;;;;;;5.10;41.30;98723.81;4502111;31;20075;-81
2022/03/03 02:36:27;;;;;;;25.25;11.43;;;;;;;5.11;41.12;98718.53;4503763;31;20092;-81
2022/03/03 02:38:55;;;;;;;25.73;11.27;;;;;;;5.11;40.96;98720.28;4501988;31;20481;-82
2022/03/03 02:41:21;;;;;;;25.30;11.27;;;;;;;5.07;40.94;98719.53;4487160;31;20159;-81
2022/03/03 02:43:46;;;;;;;27.05;11.70;;;;;;;5.04;40.92;98724.88;4490252;31;20162;-82
2022/03/03 02:46:13;;;;;;;26.08;11.40;;;;;;;4.99;40.95;98723.31;4472188;32;20158;-82
2022/03/03 02:48:38;;;;;;;24.70;11.40;;;;;;;5.00;40.86;98722.41;4486713;32;20096;-81
2022/03/03 02:51:04;;;;;;;25.60;10.98;;;;;;;5.01;40.75;98716.28;4486515;32;20426;-82
2022/03/03 02:53:30;;;;;;;23.33;10.45;;;;;;;4.96;40.70;98718.19;4487186;31;20428;-82
2022/03/03 02:55:55;;;;;;;24.77;11.45;;;;;;;4.99;40.68;98705.03;4487841;32;20116;-82
2022/03/03 02:58:21;;;;;;;25.75;11.35;;;;;;;4.92;40.72;98705.25;4487817;32;20368;-82
2022/03/03 03:00:47;;;;;;;24.33;12.05;;;;;;;4.95;40.71;98703.44;4492085;31;20107;-82
2022/03/03 03:03:16;;;;;;;28.85;12.73;;;;;;;4.89;40.73;98705.34;4496482;31;20364;-81
2022/03/03 03:05:42;;;;;;;28.70;12.77;;;;;;;4.85;40.59;98702.91;4477318;31;20169;-82
2022/03/03 03:08:08;;;;;;;27.20;11.43;;;;;;;4.80;40.69;98700.41;4503513;31;20360;-82
2022/03/03 03:10:34;;;;;;;31.17;13.27;;;;;;;4.73;40.55;98701.50;4500160;31;20088;-82
2022/03/03 03:12:59;;;;;;;27.92;12.35;;;;;;;4.67;40.59;98702.56;4487759;32;20130;-81
2022/03/03 03:15:25;;;;;;;26.62;13.18;;;;;;;4.72;40.43;98702.44;4487684;32;20436;-82
2022/03/03 03:17:51;;;;;;;32.13;13.88;;;;;;;4.71;40.32;98705.91;4473341;32;20139;-82
2022/03/03 03:20:17;;;;;;;27.70;12.68;;;;;;;4.69;40.14;98702.50;4499438;31;20075;-81
2022/03/03 03:22:42;;;;;;;29.52;12.57;;;;;;;4.65;39.91;98699.13;4503332;31;20171;-81
2022/03/03 03:25:09;;;;;;;25.37;11.38;;;;;;;4.58;39.85;98700.25;4503200;31;20100;-81
2022/03/03 03:27:40;;;;;;;23.50;11.17;;;;;;;4.61;39.80;98699.31;4503187;31;20139;-81
2022/03/03 03:30:07;;;;;;;22.75;10.13;;;;;;;4.65;39.92;98698.28;4500183;31;20187;-82
2022/03/03 03:32:33;;;;;;;24.63;9.93;;;;;;;4.61;40.23;98692.31;4503285;31;20084;-82
2022/03/03 03:34:58;;;;;;;22.17;10.55;;;;;;;4.68;40.26;98690.37;4488783;31;20164;-81
2022/03/03 03:37:24;;;;;;;24.70;10.60;;;;;;;4.68;40.18;98686.00;4503088;31;20454;-81
2022/03/03 03:39:49;;;;;;;21.23;9.93;;;;;;;4.67;40.11;98684.28;4502140;31;20124;-81
2022/03/03 03:42:14;;;;;;;25.00;10.00;;;;;;;4.65;39.97;98687.84;4502690;31;20119;-82
2022/03/03 03:44:40;;;;;;;24.55;10.23;;;;;;;4.68;39.88;98679.94;4488654;31;20172;-82
2022/03/03 03:47:06;;;;;;;23.38;9.88;;;;;;;4.73;39.83;98683.25;4502966;31;20156;-82
2022/03/03 03:49:33;;;;;;;22.40;10.18;;;;;;;4.73;39.83;98688.47;4496363;31;20092;-81
2022/03/03 03:51:58;;;;;;;21.40;9.63;;;;;;;4.69;40.00;98690.34;4487367;32;20128;-80
2022/03/03 03:54:24;;;;;;;24.00;9.48;;;;;;;4.72;40.19;98690.22;4492465;31;20375;-81
2022/03/03 03:56:49;;;;;;;23.87;10.13;;;;;;;4.72;40.36;98687.63;4490356;31;20104;-81
2022/03/03 03:59:15;;;;;;;21.08;9.90;;;;;;;4.76;40.48;98685.75;4490514;31;20092;-81
2022/03/03 04:01:40;;;;;;;22.62;9.60;;;;;;;4.70;40.64;98683.34;4488521;31;20115;-81
2022/03/03 04:04:06;;;;;;;26.35;10.23;;;;;;;4.70;40.84;98686.81;4497578;31;20092;-81
2022/03/03 04:06:32;;;;;;;24.83;10.23;;;;;;;4.65;40.62;98682.63;4487116;32;20401;-81
2022/03/03 04:08:58;;;;;;;22.52;10.02;;;;;;;4.71;40.47;98685.03;4488467;31;20384;-81
2022/03/03 04:11:24;;;;;;;20.62;9.15;;;;;;;4.66;40.52;98672.16;4488464;31;20084;-81
2022/03/03 04:13:49;;;;;;;25.12;9.70;;;;;;;4.72;40.60;98677.19;4503172;31;20147;-81
2022/03/03 04:16:15;;;;;;;21.35;9.60;;;;;;;4.69;40.67;98674.69;4503302;31;20080;-82
2022/03/03 04:18:41;;;;;;;21.70;9.43;;;;;;;4.70;40.93;98671.16;4502703;31;20135;-82
2022/03/03 04:21:06;;;;;;;21.92;10.30;;;;;;;4.67;41.29;98675.63;4487290;31;20104;-80
2022/03/03 04:23:31;;;;;;;22.95;9.02;;;;;;;4.75;41.42;98667.53;4486971;32;20162;-80
2022/03/03 04:25:57;;;;;;;22.30;9.57;;;;;;;4.76;41.60;98664.88;4472790;32;20407;-81
2022/03/03 04:28:23;;;;;;;21.73;9.13;;;;;;;4.78;41.60;98668.28;4486855;32;20393;-80
2022/03/03 04:30:48;;;;;;;22.48;9.40;;;;;;;4.73;41.62;98660.63;4493072;31;20157;-81
2022/03/03 04:33:14;;;;;;;21.37;9.70;;;;;;;4.71;41.44;98658.94;4502763;31;20151;-80
2022/03/03 04:35:40;;;;;;;23.73;9.95;;;;;;;4.68;41.40;98659.06;4488274;31;20103;-81
2022/03/03 04:38:05;;;;;;;22.85;9.80;;;;;;;4.69;41.44;98665.97;4502778;31;20092;-80
2022/03/03 04:40:31;;;;;;;22.70;9.55;;;;;;;4.65;41.52;98669.59;4473940;32;20451;-81
2022/03/03 04:42:56;;;;;;;23.05;9.25;;;;;;;4.71;41.49;98672.00;4471215;32;20146;-81
2022/03/03 04:45:21;;;;;;;22.60;9.60;;;;;;;4.72;41.57;98666.75;4471223;32;20378;-82
2022/03/03 04:47:47;;;;;;;23.12;10.00;;;;;;;4.71;41.60;98664.16;4471143;32;20100;-80
2022/03/03 04:50:13;;;;;;;24.63;9.88;;;;;;;4.66;41.85;98664.34;4480049;32;20095;-82
2022/03/03 04:52:38;;;;;;;25.83;10.95;;;;;;;4.73;42.14;98662.38;4484617;31;20093;-81
2022/03/03 04:55:05;;;;;;;22.83;10.52;;;;;;;4.70;42.20;98670.31;4486435;32;20092;-81
2022/03/03 04:57:31;;;;;;;22.90;9.60;;;;;;;4.72;42.11;98669.34;4486800;31;20085;-82
2022/03/03 04:59:56;;;;;;;26.45;10.32;;;;;;;4.70;41.98;98667.69;4482962;31;20372;-81
2022/03/03 05:02:22;;;;;;;23.23;10.43;;;;;;;4.65;41.89;98662.63;4486591;31;20089;-81
2022/03/03 05:04:47;;;;;;;27.55;12.25;;;;;;;4.52;42.32;98666.53;4485255;32;20201;-82
2022/03/03 05:07:12;;;;;;;26.40;12.68;;;;;;;4.57;42.22;98663.78;4486478;31;20128;-82
2022/03/03 05:09:38;;;;;;;27.42;11.82;;;;;;;4.53;42.22;98665.63;4481231;31;20108;-82
2022/03/03 05:12:04;;;;;;;29.02;12.32;;;;;;;4.41;42.44;98669.47;4470904;32;20101;-81
2022/03/03 05:14:29;;;;;;;28.75;11.75;;;;;;;4.44;42.38;98673.75;4470921;32;20516;-81
2022/03/03 05:16:54;;;;;;;29.12;12.73;;;;;;;4.47;42.44;98668.44;4470700;32;20076;-82
2022/03/03 05:19:20;;;;;;;29.12;12.35;;;;;;;4.44;42.84;98669.41;4469962;32;20092;-81
2022/03/03 05:21:45;;;;;;;28.75;13.10;;;;;;;4.34;43.16;98673.19;4470436;32;20085;-81
2022/03/03 05:24:11;;;;;;;29.40;12.90;;;;;;;4.34;43.37;98671.41;4469551;32;20101;-80
2022/03/03 05:26:36;;;;;;;32.50;13.88;;;;;;;4.32;43.54;98678.44;4470756;32;20081;-79
2022/03/03 05:29:02;;;;;;;28.20;13.55;;;;;;;4.38;43.42;98676.53;4471054;32;20172;-80
2022/03/03 05:31:27;;;;;;;28.30;13.32;;;;;;;4.33;43.32;98669.72;4470818;32;20416;-81
2022/03/03 05:33:53;;;;;;;28.33;12.55;;;;;;;4.36;43.19;98679.19;4469361;32;20104;-80
2022/03/03 05:36:18;;;;;;;30.50;13.75;;;;;;;4.36;43.17;98673.97;4469441;32;20108;-81
2022/03/03 05:38:44;;;;;;;33.08;14.07;;;;;;;4.36;43.19;98680.97;4470483;32;20081;-80
2022/03/03 05:41:09;;;;;;;34.28;14.85;;;;;;;4.33;42.89;98679.31;4484554;31;20522;-79
2022/03/03 05:43:35;;;;;;;30.35;13.88;;;;;;;4.28;42.84;98681.19;4497360;31;20227;-79
2022/03/03 05:46:01;;;;;;;32.45;14.80;;;;;;;4.24;42.95;98676.97;4471848;32;20428;-80
2022/03/03 05:48:27;;;;;;;29.67;14.38;;;;;;;4.26;43.26;98673.41;4485992;32;20195;-81
2022/03/03 05:50:54;;;;;;;33.00;14.73;;;;;;;4.31;43.28;98676.75;4460420;31;20112;-81
2022/03/03 05:53:19;;;;;;;29.80;13.45;;;;;;;4.33;43.20;98676.69;4501331;31;20083;-79
2022/03/03 05:55:51;;;;;;;31.73;14.93;;;;;;;4.43;43.09;98672.06;4487358;31;20109;-78
2022/03/03 05:58:19;;;;;;;37.38;15.55;;;;;;;4.42;43.22;98671.16;4487396;31;20582;-80
2022/03/03 06:00:53;;;;;;;32.63;14.87;;;;;;;4.51;43.28;98683.94;4500518;31;20080;-79
2022/03/03 06:03:19;;;;;;;31.33;14.85;;;;;;;4.58;43.13;98676.78;4485808;32;20158;-80
2022/03/03 06:05:52;;;;;;;31.35;15.30;;;;;;;4.58;43.11;98676.78;4473318;32;20112;-80
2022/03/03 06:08:30;;;;;;;30.52;14.77;;;;;;;4.65;42.98;98680.88;4487680;31;20097;-83
2022/03/03 06:11:01;;;;;;;32.65;14.80;;;;;;;4.67;43.01;98688.66;4487911;31;20534;-79
2022/03/03 06:13:30;;;;;;;32.15;15.00;;;;;;;4.83;42.49;98687.28;4487958;31;20103;-80
2022/03/03 06:15:56;;;;;;;30.25;13.73;;;;;;;4.96;41.88;98684.25;4489012;31;20087;-81
2022/03/03 06:18:27;;;;;;;31.25;14.80;;;;;;;4.90;41.91;98686.16;4503629;31;20136;-81
2022/03/03 06:20:56;;;;;;;31.92;14.63;;;;;;;5.06;41.02;98681.28;4503506;31;20091;-81
2022/03/03 06:23:21;;;;;;;29.98;14.77;;;;;;;5.08;41.21;98689.91;4503423;31;20115;-81
2022/03/03 06:25:54;;;;;;;32.67;14.98;;;;;;;5.12;41.00;98691.53;4500429;31;20096;-81
2022/03/03 06:28:20;;;;;;;30.95;14.05;;;;;;;5.07;40.79;98687.34;4473331;32;20106;-81
2022/03/03 06:30:45;;;;;;;35.05;15.80;;;;;;;5.04;41.21;98688.31;4460315;32;20352;-82
2022/03/03 06:33:11;;;;;;;34.50;14.87;;;;;;;5.13;40.73;98687.97;4487474;32;20110;-81
2022/03/03 06:35:37;;;;;;;29.90;14.80;;;;;;;5.04;40.85;98692.66;4473185;31;20402;-82
2022/03/03 06:38:05;;;;;;;35.67;16.30;;;;;;;5.04;41.13;98690.94;4487634;32;20103;-83
2022/03/03 06:40:30;;;;;;;;;;;;;;;5.11;40.75;98702.00;4473353;32;20097;-82
2022/03/03 06:43:00;;;;;;;29.30;14.05;;;;;;;5.09;40.68;98709.88;4487847;32;19995;-83
2022/03/03 06:45:26;;;;;;;32.05;15.13;;;;;;;5.19;40.78;98704.34;4487716;32;20175;-81
2022/03/03 06:47:53;;;;;;;30.58;14.52;;;;;;;5.22;40.73;98704.28;4488326;31;20177;-81
2022/03/03 06:50:19;;;;;;;28.00;13.90;;;;;;;5.23;40.96;98706.81;4503465;31;20171;-81
2022/03/03 06:52:47;;;;;;;28.48;13.77;;;;;;;5.32;40.69;98705.66;4503723;31;20099;-81
2022/03/03 06:55:13;;;;;;;28.08;13.55;;;;;;;5.45;40.59;98709.53;4489173;31;20092;-81
2022/03/03 06:57:40;;;;;;;32.25;14.13;;;;;;;5.48;40.39;98708.56;4475650;32;20080;-81
2022/03/03 07:00:06;;;;;;;30.20;14.57;;;;;;;5.63;39.82;98701.97;4487380;31;20772;-80
2022/03/03 07:02:32;;;;;;;30.60;14.40;;;;;;;5.66;39.52;98700.09;4491131;31;20205;-79
2022/03/03 07:04:58;;;;;;;29.10;14.30;;;;;;;5.72;39.74;98702.47;4487398;32;20110;-81
2022/03/03 07:07:24;;;;;;;28.87;14.77;;;;;;;5.80;39.26;98696.97;4473079;32;20381;-82
2022/03/03 07:09:50;;;;;;;30.25;15.18;;;;;;;5.83;39.29;98699.50;4473126;32;20128;-81
2022/03/03 07:12:17;;;;;;;32.35;14.35;;;;;;;5.95;38.93;98697.31;4487468;31;20106;-81
2022/03/03 07:14:42;;;;;;;31.60;15.43;;;;;;;5.98;38.96;98702.47;4487628;32;20108;-81
2022/03/03 07:17:21;;;;;;;31.73;14.82;;;;;;;5.99;38.83;98705.03;4485547;32;20084;-81
2022/03/03 07:34:37;;;;;;;32.47;15.35;;;;;;;4.56;43.75;98703.81;4508672;31;225463;-86
2022/03/03 07:37:07;;;;;;;37.40;15.80;;;;;;;4.56;43.75;98703.81;4487407;31;20154;-81
2022/03/03 07:39:44;;;;;;;32.50;15.25;;;;;;;4.80;42.19;98699.56;4484544;32;20097;-79
2022/03/03 07:42:15;;;;;;;29.87;14.48;;;;;;;5.26;41.32;98693.66;4499096;31;20112;-78
2022/03/03 07:44:41;;;;;;;33.72;16.23;;;;;;;5.67;39.88;98683.50;4514237;31;20111;-79
2022/03/03 07:47:07;;;;;;;34.97;15.43;;;;;;;5.93;39.35;98683.44;4500306;31;20155;-79
2022/03/03 07:49:33;;;;;;;30.20;15.85;;;;;;;5.96;39.31;98680.75;4514736;31;20100;-79
2022/03/03 07:52:01;;;;;;;35.85;16.30;;;;;;;6.18;38.89;98678.16;4481450;32;20088;-76
2022/03/03 07:54:26;;;;;;;32.58;16.00;;;;;;;6.33;38.36;98672.34;4502227;31;20127;-80
2022/03/03 07:56:56;;;;;;;32.70;16.15;;;;;;;6.37;38.59;98670.44;4491002;31;20179;-79
2022/03/03 07:59:26;;;;;;;31.20;16.50;;;;;;;6.50;38.58;98674.28;4505457;31;20473;-77
2022/03/03 08:01:54;;;;;;;36.08;16.25;;;;;;;6.65;37.97;98671.06;4491430;31;20156;-78
2022/03/03 08:04:20;;;;;;;;;;;;;;;6.78;37.67;98674.03;4488170;32;20147;-78
2022/03/03 08:06:48;;;;;;;35.03;16.02;;;;;;;6.78;37.79;98681.91;4489388;31;19991;-78
2022/03/03 08:09:14;;;;;;;36.22;16.33;;;;;;;6.74;37.76;98672.47;4506847;31;20100;-77
2022/03/03 08:11:43;;;;;;;29.98;13.88;;;;;;;6.89;37.64;98671.84;4477583;31;20114;-80
2022/03/03 08:14:09;;;;;;;33.42;15.82;;;;;;;6.99;37.99;98666.19;4489429;31;20108;-80
2022/03/03 08:16:35;;;;;;;29.02;13.35;;;;;;;7.12;37.47;98667.37;4491811;31;20111;-80
2022/03/03 08:19:02;;;;;;;32.85;15.38;;;;;;;7.03;37.73;98663.41;4489360;31;20080;-80
2022/03/03 08:21:30;;;;;;;28.40;14.52;;;;;;;7.06;37.89;98665.88;4489401;31;20088;-79
2022/03/03 08:24:00;;;;;;;25.65;12.02;;;;;;;7.19;37.57;98654.91;4503009;31;20108;-80
2022/03/03 08:26:26;;;;;;;25.00;12.05;;;;;;;7.16;37.58;98653.22;4492188;32;20170;-78
2022/03/03 08:28:52;;;;;;;26.58;12.88;;;;;;;7.26;37.72;98659.81;4505315;31;20084;-80
2022/03/03 08:31:26;;;;;;;27.50;13.00;;;;;;;7.25;37.46;98660.72;4499942;31;20407;-79
2022/03/03 08:33:54;;;;;;;28.50;11.48;;;;;;;7.55;36.60;98654.19;4489576;31;20496;-80
2022/03/03 08:36:54;;;;;;;25.60;10.68;;;;;;;7.55;36.30;98655.06;4485468;32;20169;-72
2022/03/03 08:39:28;;;;;;;24.48;10.98;;;;;;;7.59;36.56;98650.50;4491592;31;20101;-78
2022/03/03 08:42:01;;;;;;;23.30;10.85;;;;;;;7.67;36.69;98653.66;4487255;32;20077;-78
2022/03/03 08:44:33;;;;;;;25.23;11.52;;;;;;;7.81;36.49;98642.53;4489562;31;20105;-79
2022/03/03 08:46:59;;;;;;;26.37;12.98;;;;;;;7.64;36.46;98649.38;4481540;31;20118;-78
2022/03/03 08:49:30;;;;;;;28.12;12.23;;;;;;;7.76;35.83;98647.13;4481566;32;20088;-78
2022/03/03 08:51:57;;;;;;;25.88;11.65;;;;;;;7.87;35.70;98637.00;4480301;32;20146;-79
2022/03/03 08:54:22;;;;;;;28.40;12.25;;;;;;;7.86;35.50;98646.66;4475606;32;20139;-77
2022/03/03 08:56:48;;;;;;;25.35;11.52;;;;;;;7.93;35.23;98634.09;4479471;32;20101;-80
2022/03/03 08:59:13;;;;;;;25.15;12.40;;;;;;;8.00;35.33;98642.56;4483166;31;20079;-80
2022/03/03 09:01:39;;;;;;;27.17;12.35;;;;;;;8.16;35.27;98645.31;4483248;31;20431;-80
2022/03/03 09:04:05;;;;;;;26.20;11.52;;;;;;;8.19;34.92;98648.62;4481806;32;20428;-78
2022/03/03 09:06:31;;;;;;;26.33;12.13;;;;;;;8.32;35.03;98648.03;4476519;32;20578;-81
2022/03/03 09:08:57;;;;;;;27.40;12.35;;;;;;;8.28;34.78;98645.56;4485433;31;20125;-81
2022/03/03 09:11:23;;;;;;;21.92;10.40;;;;;;;8.34;34.60;98646.19;4484282;32;20085;-81
2022/03/03 09:13:48;;;;;;;22.55;10.02;;;;;;;8.37;34.58;98648.69;4486120;31;20089;-81
2022/03/03 09:16:16;;;;;;;24.23;11.10;;;;;;;8.39;34.37;98642.44;4476278;32;20428;-82
2022/03/03 09:18:42;;;;;;;26.55;11.82;;;;;;;8.51;34.00;98648.06;4479451;31;20114;-81
2022/03/03 09:21:07;;;;;;;25.20;11.38;;;;;;;8.46;33.80;98643.03;4482791;31;20116;-82
2022/03/03 09:23:33;;;;;;;22.33;9.60;;;;;;;8.51;33.63;98645.44;4484348;31;20150;-82
2022/03/03 09:25:58;;;;;;;24.83;11.25;;;;;;;8.60;33.44;98650.25;4478490;31;20123;-80
2022/03/03 09:28:24;;;;;;;25.00;11.48;;;;;;;8.60;33.46;98647.62;4481308;32;20458;-82
2022/03/03 09:30:49;;;;;;;28.58;11.50;;;;;;;8.65;33.44;98637.72;4476996;32;20392;-82
2022/03/03 09:33:15;;;;;;;23.15;10.52;;;;;;;8.73;33.50;98646.09;4480633;31;20369;-83
2022/03/03 09:35:40;;;;;;;25.60;10.57;;;;;;;8.75;33.08;98644.22;4478072;32;20112;-82
2022/03/03 09:38:06;;;;;;;24.12;11.73;;;;;;;8.84;33.14;98641.12;4478058;31;20127;-82
2022/03/03 09:40:31;;;;;;;25.37;11.38;;;;;;;8.86;32.95;98643.69;4476953;32;20091;-82
2022/03/03 09:43:02;;;;;;;26.60;11.55;;;;;;;8.72;33.40;98644.37;4482558;31;20127;-82
2022/03/03 09:45:28;;;;;;;23.05;10.85;;;;;;;8.63;33.51;98635.19;4480501;31;20127;-81
2022/03/03 09:47:55;;;;;;;25.37;11.55;;;;;;;8.73;33.41;98639.97;4479583;31;20830;-79
2022/03/03 09:50:22;;;;;;;23.40;10.63;;;;;;;8.83;33.35;98638.59;4482951;31;20213;-79
2022/03/03 09:52:47;;;;;;;21.70;10.82;;;;;;;8.87;33.30;98637.50;4475150;32;20108;-80
2022/03/03 09:55:13;;;;;;;26.40;11.57;;;;;;;8.89;33.16;98646.16;4484484;31;20420;-80
2022/03/03 09:57:38;;;;;;;24.27;11.52;;;;;;;8.96;32.92;98641.44;4475878;32;20178;-79
2022/03/03 10:00:07;;;;;;;22.62;12.05;;;;;;;8.95;33.10;98637.97;4479082;31;20105;-82
2022/03/03 10:02:32;;;;;;;27.17;12.05;;;;;;;9.08;32.61;98639.97;4479615;32;20140;-79
2022/03/03 10:04:58;;;;;;;26.08;10.93;;;;;;;9.04;32.73;98637.50;4476546;32;20432;-78
2022/03/03 10:07:25;;;;;;;25.90;12.07;;;;;;;9.07;32.90;98636.50;4480631;31;20141;-78
2022/03/03 10:09:59;;;;;;;23.20;11.15;;;;;;;9.09;32.80;98645.16;4478561;31;20147;-78
2022/03/03 10:12:27;;;;;;;25.85;12.23;;;;;;;9.21;32.38;98634.03;4475076;32;20109;-78
2022/03/03 10:14:57;;;;;;;26.25;12.70;;;;;;;9.34;32.05;98628.97;4478678;32;20116;-79
2022/03/03 10:17:36;;;;;;;27.77;12.25;;;;;;;9.37;32.00;98625.34;4475652;32;20579;-79
2022/03/03 10:20:04;;;;;;;23.25;10.65;;;;;;;9.35;31.96;98632.44;4477816;32;20427;-78
2022/03/03 10:22:47;;;;;;;;;;;;;;;9.33;31.67;98615.91;4478339;32;20112;-78
2022/03/03 10:25:28;;;;;;;24.42;11.12;;;;;;;9.33;31.75;98616.78;4472228;32;19988;-79
2022/03/03 10:27:53;;;;;;;23.33;10.68;;;;;;;9.41;31.89;98624.25;4474468;32;20171;-79
2022/03/03 10:30:19;;;;;;;25.23;11.82;;;;;;;9.59;31.50;98614.53;4479225;31;20379;-77
2022/03/03 10:32:44;;;;;;;24.70;11.30;;;;;;;9.58;31.42;98612.81;4478077;32;20092;-77
2022/03/03 10:35:17;;;;;;;23.77;11.90;;;;;;;9.61;31.70;98616.16;4478735;32;20130;-77
2022/03/03 10:37:44;;;;;;;26.87;11.57;;;;;;;9.74;31.44;98613.72;4469816;32;20651;-78
2022/03/03 10:40:12;;;;;;;23.58;11.50;;;;;;;9.84;31.47;98611.44;4476130;32;20380;-78
2022/03/03 10:42:42;;;;;;;23.17;11.27;;;;;;;9.81;31.26;98603.69;4478808;31;20127;-78
2022/03/03 10:45:12;;;;;;;24.52;12.20;;;;;;;9.86;31.25;98592.94;4478401;32;20122;-78
2022/03/03 10:47:43;;;;;;;26.60;11.82;;;;;;;9.80;31.26;98597.59;4474629;32;20123;-78
2022/03/03 10:50:09;;;;;;;25.75;11.43;;;;;;;9.89;31.42;98598.87;4479997;31;20469;-76
2022/03/03 10:52:35;;;;;;;28.08;13.05;;;;;;;10.00;31.31;98588.59;4479327;32;20089;-76
2022/03/03 10:55:10;;;;;;;26.20;11.70;;;;;;;9.95;31.54;98595.06;4470447;32;20105;-76
2022/03/03 10:57:46;;;;;;;23.85;11.98;;;;;;;10.17;31.28;98582.41;4480281;31;20110;-76
2022/03/03 11:00:14;;;;;;;23.17;11.60;;;;;;;10.38;31.01;98576.91;4483409;32;20080;-77
2022/03/03 11:02:43;;;;;;;25.15;11.52;;;;;;;10.24;31.40;98578.50;4485570;31;20741;-81
2022/03/03 11:05:10;;;;;;;24.10;11.85;;;;;;;10.39;31.04;98579.44;4483031;32;20603;-79
2022/03/03 11:07:37;;;;;;;24.17;11.10;;;;;;;10.58;30.45;98579.22;4475582;32;20092;-79
2022/03/03 11:10:04;;;;;;;23.20;10.30;;;;;;;10.44;30.64;98573.91;4475198;32;20534;-78
2022/03/03 11:12:29;;;;;;;22.87;10.60;;;;;;;10.40;30.50;98564.50;4480121;32;20152;-79
2022/03/03 11:14:58;;;;;;;22.77;10.18;;;;;;;10.40;30.63;98573.22;4476485;32;20087;-79
2022/03/03 11:17:23;;;;;;;22.55;10.82;;;;;;;10.54;30.91;98553.16;4474244;32;20093;-79
2022/03/03 11:19:51;;;;;;;22.48;11.12;;;;;;;10.61;30.77;98555.34;4475823;32;20095;-79
2022/03/03 11:22:17;;;;;;;23.12;10.20;;;;;;;10.75;30.55;98557.16;4479341;32;20101;-79
2022/03/03 11:24:43;;;;;;;21.65;10.35;;;;;;;10.80;30.55;98551.63;4464948;32;20105;-80
2022/03/03 11:27:09;;;;;;;23.48;10.77;;;;;;;10.93;30.36;98549.97;4472599;32;20148;-78
2022/03/03 11:29:38;;;;;;;23.85;9.95;;;;;;;11.06;29.44;98542.16;4470474;32;20119;-80
2022/03/03 11:32:16;;;;;;;21.42;10.43;;;;;;;11.04;29.74;98543.19;4469381;32;20127;-79
2022/03/03 11:34:44;;;;;;;19.00;9.57;;;;;;;11.27;29.32;98542.63;4496047;31;20088;-79
2022/03/03 11:37:10;;;;;;;21.58;9.50;;;;;;;11.48;29.82;98539.63;4487786;31;20623;-79
2022/03/03 11:39:46;;;;;;;20.40;9.90;;;;;;;11.54;29.74;98531.31;4502048;31;20127;-80